Pataskala, OH (43062)

10:12 PM EDT on September 29, 2016 (GMT -0400)
Glenbrooke Addition | | Change Station

Elev 1079 ft 40.00 °N, 82.75 °W | Updated 15 seconds ago

Overcast
Overcast
61.3 °F
Feels Like 61.3 °F
N
1.4
Wind Variable Wind from East
Gusts 3.3 mph

Today
High -- | Low -- °F
--% Chance of Precip.
Yesterday
High -- | Low -- °F
Precip. -- in
Pressure 30.08 in
Visibility 10.0 miles
Clouds Few 2900 ft
Overcast 8500 ft
Dew Point 60 °F
Humidity 96%
Rainfall 0.08 in
Snow Depth Not available.
7:25 AM 7:15 PM
Waning Crescent, 1% visible
METAR KCMH 300151Z 04005KT 10SM FEW029 OVC085 16/16 A3009 RMK AO2 SLP186 T01610161
Pressure 30.08 in
Visibility 10.0 miles
Clouds Few 2900 ft
Overcast 8500 ft
Dew Point 60 °F
Humidity 96%
Rainfall 0.08 in
Snow Depth Not available.
7:25 AM 7:15 PM
Waning Crescent, 1% visible
METAR KCMH 300151Z 04005KT 10SM FEW029 OVC085 16/16 A3009 RMK AO2 SLP186 T01610161

10-Day Weather Forecast

Almanac

Astronomy

Sep. 29, 2016 Rise Set
Actual Time
Civil Twilight
Nautical Twilight
Astronomical Twilight
Moon
Length of Visible Light
Length of Day
Tomorrow will be .
, % of the Moon is Illuminated

Today's Extremes

State Highs State Lows

Community

WunderPhotos

Upload Photos

1,942,637 photos uploaded!

WunderBlog® & News

Nearby

Air Quality

  Air Quality AQ Index Pollutant
Not available.

Snow Depth

Station Depth Elevation

Earthquake Activity

City Distance Mag. Time & Date
Minimum magnitude displayed is 2.5.

Coastal Water Temperatures

Place Temperature

Stations

Nearby Weather Stations

Station Location Temp. Windchill Dew Point Humidity Wind Precip. Elev Updated Type
                   

Watches & Warnings

There are currently no watches in effect.